Time;durP1;ratioP1;P1;durP2;ratioP2;P2;SDS_P1;SDS_P2;PMS_P1;PMS_P2;Temp;Humidity;BMP_temperature;BMP_pressure;BME280_temperature;BME280_humidity;BME280_pressure;Samples;Min_cycle;Max_cycle;Signal;HPM_P1;HPM_P2
2022/07/12 00:00:07;;;;;;;3.67;3.38;;;;;;;;;;5001132;28;20275;-77
2022/07/12 00:02:36;;;;;;;3.95;3.53;;;;;;;;;;4994895;28;20189;-77
2022/07/12 00:05:05;;;;;;;3.58;3.38;;;;;;;;;;4994207;28;20237;-77
2022/07/12 00:07:34;;;;;;;4.03;3.65;;;;;;;;;;4994524;28;20677;-77
2022/07/12 00:10:05;;;;;;;4.75;3.80;;;;;;;;;;4994607;28;20213;-77
2022/07/12 00:12:34;;;;;;;3.92;3.63;;;;;;;;;;4994727;28;20201;-77
2022/07/12 00:15:02;;;;;;;4.38;3.97;;;;;;;;;;4994268;28;20198;-76
2022/07/12 00:17:30;;;;;;;4.90;4.40;;;;;;;;;;4994649;28;20623;-77
2022/07/12 00:19:59;;;;;;;4.25;3.90;;;;;;;;;;4994743;28;20630;-77
2022/07/12 00:22:28;;;;;;;5.03;4.00;;;;;;;;;;4994471;28;20251;-77
2022/07/12 00:24:56;;;;;;;4.68;4.28;;;;;;;;;;4994476;28;20617;-77
2022/07/12 00:27:28;;;;;;;4.40;4.10;;;;;;;;;;4994502;28;20601;-77
2022/07/12 00:29:56;;;;;;;4.45;4.15;;;;;;;;;;4994208;28;20193;-77
2022/07/12 00:32:25;;;;;;;5.07;4.55;;;;;;;;;;4994075;28;20209;-77
2022/07/12 00:34:53;;;;;;;4.82;4.43;;;;;;;;;;4994077;28;20658;-77
2022/07/12 00:37:22;;;;;;;4.90;4.40;;;;;;;;;;4974941;28;20284;-77
2022/07/12 00:39:50;;;;;;;4.38;4.07;;;;;;;;;;4982100;28;20209;-77
2022/07/12 00:42:19;;;;;;;4.40;4.00;;;;;;;;;;4993978;28;20209;-77
2022/07/12 00:44:49;;;;;;;5.38;4.97;;;;;;;;;;4993812;28;20229;-77
2022/07/12 00:47:22;;;;;;;5.38;4.97;;;;;;;;;;4994222;28;20256;-77
2022/07/12 00:49:50;;;;;;;4.80;4.43;;;;;;;;;;4993877;28;20185;-77
2022/07/12 00:52:19;;;;;;;5.00;4.60;;;;;;;;;;4994083;28;20209;-77
2022/07/12 00:54:48;;;;;;;4.72;4.32;;;;;;;;;;4993575;28;20201;-77
2022/07/12 00:57:16;;;;;;;5.20;4.80;;;;;;;;;;4994405;28;20636;-77
2022/07/12 00:59:45;;;;;;;5.10;4.50;;;;;;;;;;4994025;28;20236;-77
2022/07/12 01:02:15;;;;;;;5.10;4.70;;;;;;;;;;4995059;28;20271;-77
2022/07/12 01:04:44;;;;;;;5.00;4.60;;;;;;;;;;4998079;28;20594;-77
2022/07/12 01:07:13;;;;;;;4.57;4.20;;;;;;;;;;4997944;28;20208;-77
2022/07/12 01:09:41;;;;;;;4.68;4.35;;;;;;;;;;4997650;28;20336;-77
2022/07/12 01:12:10;;;;;;;4.70;4.30;;;;;;;;;;4997979;28;20209;-77
2022/07/12 01:14:40;;;;;;;4.72;4.22;;;;;;;;;;4997731;28;20212;-77
2022/07/12 01:17:10;;;;;;;4.97;4.57;;;;;;;;;;4997433;28;20271;-77
2022/07/12 01:19:40;;;;;;;4.78;4.40;;;;;;;;;;4997836;28;20259;-77
2022/07/12 01:22:10;;;;;;;5.25;4.80;;;;;;;;;;4997825;28;20196;-77
2022/07/12 01:24:40;;;;;;;4.95;4.53;;;;;;;;;;4998128;28;20650;-77
2022/07/12 01:27:09;;;;;;;4.80;4.43;;;;;;;;;;4997890;28;20224;-77
2022/07/12 01:29:37;;;;;;;5.43;4.93;;;;;;;;;;4997303;28;20209;-77
2022/07/12 01:34:49;;;;;;;6.68;6.07;;;;;;;;;;5008626;28;20206;-76
2022/07/12 01:37:18;;;;;;;6.53;5.93;;;;;;;;;;4996936;28;20201;-77
2022/07/12 01:39:48;;;;;;;6.85;6.15;;;;;;;;;;4997068;28;20198;-77
2022/07/12 01:42:17;;;;;;;6.70;6.20;;;;;;;;;;4997647;28;20522;-77
2022/07/12 01:44:46;;;;;;;6.70;6.10;;;;;;;;;;4996541;28;20201;-77
2022/07/12 01:47:14;;;;;;;6.80;6.20;;;;;;;;;;4997144;28;20216;-77
2022/07/12 01:49:42;;;;;;;7.00;6.30;;;;;;;;;;4997349;28;20268;-77
2022/07/12 01:52:11;;;;;;;6.05;5.55;;;;;;;;;;4997340;28;20670;-77
2022/07/12 01:54:40;;;;;;;5.63;5.13;;;;;;;;;;4996945;28;20332;-77
2022/07/12 01:57:10;;;;;;;5.60;5.10;;;;;;;;;;4997018;28;20229;-77
2022/07/12 01:59:38;;;;;;;5.63;5.13;;;;;;;;;;4997526;28;20582;-77
2022/07/12 02:02:07;;;;;;;5.30;4.80;;;;;;;;;;4990039;28;20217;-77
2022/07/12 02:04:36;;;;;;;5.95;5.50;;;;;;;;;;4997203;28;20686;-77
2022/07/12 02:07:05;;;;;;;6.20;5.60;;;;;;;;;;4996851;28;20665;-77
2022/07/12 02:09:33;;;;;;;6.22;5.68;;;;;;;;;;4996985;28;20205;-77
2022/07/12 02:12:02;;;;;;;6.43;5.82;;;;;;;;;;4996582;28;20205;-77
2022/07/12 02:14:31;;;;;;;6.43;5.90;;;;;;;;;;4996771;28;20228;-77
2022/07/12 02:17:00;;;;;;;6.75;6.15;;;;;;;;;;4997029;28;20221;-77
2022/07/12 02:19:28;;;;;;;7.63;6.93;;;;;;;;;;4996786;28;20773;-77
2022/07/12 02:21:57;;;;;;;6.65;6.05;;;;;;;;;;4996657;28;20614;-77
2022/07/12 02:24:25;;;;;;;6.68;6.18;;;;;;;;;;4996535;28;20209;-77
2022/07/12 02:26:54;;;;;;;7.15;6.47;;;;;;;;;;4995844;28;20236;-77
2022/07/12 02:29:23;;;;;;;7.68;6.85;;;;;;;;;;4996593;28;20220;-77
2022/07/12 02:31:52;;;;;;;8.07;7.28;;;;;;;;;;4996120;28;20209;-77
2022/07/12 02:34:21;;;;;;;7.65;6.95;;;;;;;;;;4996584;28;20260;-77
2022/07/12 02:36:49;;;;;;;7.18;6.57;;;;;;;;;;4996770;28;20244;-77
2022/07/12 02:39:18;;;;;;;7.00;6.30;;;;;;;;;;4996083;28;20205;-77
2022/07/12 02:41:46;;;;;;;8.23;6.18;;;;;;;;;;4995730;28;20244;-77
2022/07/12 02:44:15;;;;;;;7.00;6.30;;;;;;;;;;4996379;28;20205;-77
2022/07/12 02:46:43;;;;;;;6.68;6.07;;;;;;;;;;4993761;28;20225;-77
2022/07/12 02:49:13;;;;;;;6.88;5.88;;;;;;;;;;4991997;28;20229;-77
2022/07/12 02:51:41;;;;;;;6.43;5.82;;;;;;;;;;4996163;28;20201;-77
2022/07/12 02:54:10;;;;;;;6.55;5.95;;;;;;;;;;5005747;28;20201;-77
2022/07/12 02:56:38;;;;;;;5.72;5.18;;;;;;;;;;4996163;28;20247;-77
2022/07/12 02:59:07;;;;;;;6.53;5.55;;;;;;;;;;4995759;28;20251;-77
2022/07/12 03:01:35;;;;;;;6.57;5.95;;;;;;;;;;4995550;28;20216;-77
2022/07/12 03:04:04;;;;;;;6.75;6.13;;;;;;;;;;4995419;28;20209;-76
2022/07/12 03:06:34;;;;;;;6.63;6.03;;;;;;;;;;5010090;28;20228;-77
2022/07/12 03:09:02;;;;;;;7.05;6.35;;;;;;;;;;5015066;28;20205;-77
2022/07/12 03:11:30;;;;;;;7.68;7.07;;;;;;;;;;5016418;28;20212;-77
2022/07/12 03:13:59;;;;;;;8.00;6.70;;;;;;;;;;5015253;28;20684;-77
2022/07/12 03:16:27;;;;;;;7.57;6.75;;;;;;;;;;4999213;28;20217;-77
2022/07/12 03:18:56;;;;;;;6.47;5.90;;;;;;;;;;4995409;28;20236;-78
2022/07/12 03:21:24;;;;;;;6.60;6.00;;;;;;;;;;4995682;28;20666;-78
2022/07/12 03:23:54;;;;;;;6.65;6.05;;;;;;;;;;4995587;28;20275;-77
2022/07/12 03:26:22;;;;;;;7.95;6.05;;;;;;;;;;4994884;28;20228;-77
2022/07/12 03:28:51;;;;;;;6.82;6.13;;;;;;;;;;4995516;28;20212;-77
2022/07/12 03:31:20;;;;;;;6.75;6.10;;;;;;;;;;4976022;28;20206;-77
2022/07/12 03:33:48;;;;;;;6.45;5.70;;;;;;;;;;4975863;28;20221;-77
2022/07/12 03:36:17;;;;;;;6.97;5.70;;;;;;;;;;4994568;28;20280;-77
2022/07/12 03:38:45;;;;;;;6.88;6.20;;;;;;;;;;4995211;28;20213;-77
2022/07/12 03:41:15;;;;;;;6.35;5.85;;;;;;;;;;4995249;28;20650;-77
2022/07/12 03:43:43;;;;;;;7.05;6.45;;;;;;;;;;4994808;28;20217;-77
2022/07/12 03:46:12;;;;;;;7.07;6.38;;;;;;;;;;4994363;28;20225;-77
2022/07/12 03:48:40;;;;;;;6.70;6.10;;;;;;;;;;4995089;28;20260;-77
2022/07/12 03:51:09;;;;;;;6.70;5.90;;;;;;;;;;4994495;28;20205;-77
2022/07/12 03:53:37;;;;;;;6.53;5.88;;;;;;;;;;4994919;28;20288;-77
2022/07/12 03:56:06;;;;;;;6.55;5.93;;;;;;;;;;4994648;28;20612;-76
2022/07/12 03:58:35;;;;;;;6.43;5.78;;;;;;;;;;4994917;28;20267;-77
2022/07/12 04:01:04;;;;;;;7.75;6.13;;;;;;;;;;4994726;28;20595;-77
2022/07/12 04:03:32;;;;;;;6.28;5.60;;;;;;;;;;4994827;28;20231;-77
2022/07/12 04:06:01;;;;;;;6.55;5.95;;;;;;;;;;4993785;28;20225;-77
2022/07/12 04:08:29;;;;;;;7.22;6.13;;;;;;;;;;4994536;28;20238;-77
2022/07/12 04:10:58;;;;;;;8.20;6.57;;;;;;;;;;4994359;28;20209;-77
2022/07/12 04:13:26;;;;;;;6.35;5.72;;;;;;;;;;4994382;28;20673;-77
2022/07/12 04:15:56;;;;;;;7.03;6.03;;;;;;;;;;4994390;28;20720;-77
2022/07/12 04:18:24;;;;;;;6.57;5.97;;;;;;;;;;4994871;28;20578;-77
2022/07/12 04:20:57;;;;;;;6.68;6.07;;;;;;;;;;4994191;28;20197;-77
2022/07/12 04:23:25;;;;;;;6.97;5.93;;;;;;;;;;4994149;28;20208;-77
2022/07/12 04:25:54;;;;;;;6.55;5.95;;;;;;;;;;4993705;28;20233;-77
2022/07/12 04:28:22;;;;;;;6.45;5.82;;;;;;;;;;4994287;28;20233;-77
2022/07/12 04:30:51;;;;;;;7.82;6.03;;;;;;;;;;4993762;28;20268;-77
2022/07/12 04:33:21;;;;;;;6.95;6.35;;;;;;;;;;4993914;28;20205;-77
2022/07/12 04:35:49;;;;;;;6.97;5.95;;;;;;;;;;4994095;28;20233;-77
2022/07/12 04:38:18;;;;;;;7.43;5.82;;;;;;;;;;4993211;28;20212;-77
2022/07/12 04:40:46;;;;;;;7.28;5.32;;;;;;;;;;4993793;28;20201;-77
2022/07/12 04:43:15;;;;;;;8.73;6.10;;;;;;;;;;4994184;28;20205;-77
2022/07/12 04:45:44;;;;;;;6.03;5.40;;;;;;;;;;4993977;28;20225;-77
2022/07/12 04:48:12;;;;;;;6.10;5.50;;;;;;;;;;4993549;28;20276;-77
2022/07/12 04:50:43;;;;;;;5.82;5.22;;;;;;;;;;4974290;28;20285;-77
2022/07/12 04:53:11;;;;;;;7.18;6.20;;;;;;;;;;4974635;28;20206;-78
2022/07/12 04:55:40;;;;;;;6.70;6.10;;;;;;;;;;4974215;28;20296;-77
2022/07/12 04:58:08;;;;;;;6.45;5.57;;;;;;;;;;4984941;28;20669;-77
2022/07/12 05:00:36;;;;;;;7.05;6.10;;;;;;;;;;4993759;28;20790;-77
2022/07/12 05:03:05;;;;;;;6.50;5.90;;;;;;;;;;4993671;28;20256;-77
2022/07/12 05:05:33;;;;;;;6.97;6.30;;;;;;;;;;4993850;28;20291;-77
2022/07/12 05:08:04;;;;;;;6.53;5.93;;;;;;;;;;4993501;28;20232;-77
2022/07/12 05:10:32;;;;;;;6.70;6.00;;;;;;;;;;4993272;28;20193;-77
2022/07/12 05:13:00;;;;;;;6.35;5.85;;;;;;;;;;4993812;28;20294;-77
2022/07/12 05:15:29;;;;;;;6.20;5.70;;;;;;;;;;4993672;28;20232;-77
2022/07/12 05:17:57;;;;;;;6.25;5.75;;;;;;;;;;4993871;28;20205;-77
2022/07/12 05:20:26;;;;;;;8.15;6.13;;;;;;;;;;4993538;28;20201;-77
2022/07/12 05:22:54;;;;;;;5.90;5.40;;;;;;;;;;4993828;28;20697;-77
2022/07/12 05:25:25;;;;;;;7.03;6.40;;;;;;;;;;4993351;28;20308;-77
2022/07/12 05:27:53;;;;;;;6.97;6.40;;;;;;;;;;4993698;28;20299;-77
2022/07/12 05:30:22;;;;;;;6.35;5.70;;;;;;;;;;4993795;28;20209;-77
2022/07/12 05:32:50;;;;;;;5.70;5.20;;;;;;;;;;5012105;28;20197;-77
2022/07/12 05:35:20;;;;;;;5.78;5.18;;;;;;;;;;5001114;28;20229;-77
2022/07/12 05:37:49;;;;;;;5.32;4.82;;;;;;;;;;4993605;28;20190;-77
2022/07/12 05:40:18;;;;;;;5.72;5.22;;;;;;;;;;4993984;28;20220;-77
2022/07/12 05:42:48;;;;;;;6.00;5.50;;;;;;;;;;4993682;28;20215;-77
2022/07/12 05:45:17;;;;;;;5.75;5.07;;;;;;;;;;5002656;28;20235;-77
2022/07/12 05:47:46;;;;;;;5.40;4.95;;;;;;;;;;5013504;28;20552;-77
2022/07/12 05:50:14;;;;;;;5.40;4.90;;;;;;;;;;5014271;28;20220;-78
2022/07/12 05:55:29;;;;;;;5.03;4.47;;;;;;;;;;4996937;28;20225;-77
2022/07/12 05:57:59;;;;;;;4.95;4.55;;;;;;;;;;4997162;28;20240;-77
2022/07/12 06:00:27;;;;;;;5.18;4.78;;;;;;;;;;4996753;28;20668;-77
2022/07/12 06:02:56;;;;;;;4.55;4.18;;;;;;;;;;4996903;28;20213;-77
2022/07/12 06:05:25;;;;;;;4.60;4.20;;;;;;;;;;5007167;28;20220;-77
2022/07/12 06:07:53;;;;;;;5.07;4.68;;;;;;;;;;5016326;28;20224;-77
2022/07/12 06:10:22;;;;;;;7.13;5.10;;;;;;;;;;4977010;28;20654;-77
2022/07/12 06:12:55;;;;;;;8.77;5.20;;;;;;;;;;4977435;28;20651;-77
2022/07/12 06:15:25;;;;;;;5.68;5.10;;;;;;;;;;4976566;28;20265;-77
2022/07/12 06:18:00;;;;;;;5.15;4.75;;;;;;;;;;4977372;28;20189;-77
2022/07/12 06:20:29;;;;;;;4.97;4.57;;;;;;;;;;4977223;28;20682;-77
2022/07/12 06:22:58;;;;;;;4.70;4.30;;;;;;;;;;4976958;28;20213;-77
2022/07/12 06:25:27;;;;;;;6.22;4.50;;;;;;;;;;4987436;28;20233;-77
2022/07/12 06:28:12;;;;;;;5.50;4.50;;;;;;;;;;4996239;28;20209;-77
2022/07/12 06:30:42;;;;;;;4.90;4.05;;;;;;;;;;4995578;28;20264;-77
2022/07/12 06:33:11;;;;;;;4.82;4.35;;;;;;;;;;4977091;28;20205;-77
2022/07/12 06:35:39;;;;;;;4.93;4.53;;;;;;;;;;4990557;28;20232;-77
2022/07/12 06:38:08;;;;;;;4.68;4.35;;;;;;;;;;4995876;28;20662;-77
2022/07/12 06:40:36;;;;;;;5.45;4.80;;;;;;;;;;4996211;28;20205;-77
2022/07/12 06:43:09;;;;;;;5.30;4.80;;;;;;;;;;4995992;28;20209;-77
2022/07/12 06:45:38;;;;;;;5.10;4.70;;;;;;;;;;4996400;28;20716;-77
2022/07/12 06:48:08;;;;;;;5.18;4.75;;;;;;;;;;4996185;28;20712;-77
2022/07/12 06:50:36;;;;;;;5.22;4.82;;;;;;;;;;4996100;28;20201;-77
2022/07/12 06:53:05;;;;;;;6.57;5.28;;;;;;;;;;4995705;28;20572;-77
2022/07/12 06:55:33;;;;;;;5.30;4.80;;;;;;;;;;4993711;28;20586;-77
2022/07/12 06:58:02;;;;;;;5.28;4.88;;;;;;;;;;4995705;28;20205;-77
2022/07/12 07:00:31;;;;;;;5.28;4.78;;;;;;;;;;4994693;28;20213;-77
2022/07/12 07:02:59;;;;;;;7.50;4.70;;;;;;;;;;4995707;28;20256;-77
2022/07/12 07:05:30;;;;;;;4.60;4.20;;;;;;;;;;4995742;28;20247;-77
2022/07/12 07:07:58;;;;;;;4.35;3.92;;;;;;;;;;4995483;28;20255;-77
2022/07/12 07:10:27;;;;;;;5.07;4.68;;;;;;;;;;4995363;28;20212;-77
2022/07/12 07:12:56;;;;;;;5.35;4.72;;;;;;;;;;4995827;28;20212;-77
2022/07/12 07:15:24;;;;;;;4.90;4.50;;;;;;;;;;4995357;28;20236;-77
2022/07/12 07:17:52;;;;;;;4.65;4.28;;;;;;;;;;4995499;28;20205;-77
2022/07/12 07:20:21;;;;;;;4.80;4.30;;;;;;;;;;4995672;28;20620;-77
2022/07/12 07:22:51;;;;;;;4.82;4.43;;;;;;;;;;4995488;28;20234;-77
2022/07/12 07:25:20;;;;;;;5.18;4.78;;;;;;;;;;4995642;28;20235;-78
2022/07/12 07:27:48;;;;;;;4.88;4.57;;;;;;;;;;4999002;28;20267;-75
2022/07/12 07:33:03;;;;;;;3.63;3.33;;;;;;;;;;4995395;28;20563;-75
2022/07/12 07:35:32;;;;;;;3.65;3.40;;;;;;;;;;4994282;28;20288;-75
2022/07/12 07:38:02;;;;;;;2.92;2.72;;;;;;;;;;4993828;28;20213;-76
2022/07/12 07:40:31;;;;;;;3.33;2.67;;;;;;;;;;4994538;28;20213;-75
2022/07/12 07:42:59;;;;;;;4.15;3.20;;;;;;;;;;4995056;28;20202;-76
2022/07/12 07:45:28;;;;;;;4.45;3.10;;;;;;;;;;4994597;28;20226;-76
2022/07/12 07:47:59;;;;;;;3.50;3.20;;;;;;;;;;4994800;28;20236;-75
2022/07/12 07:50:48;;;;;;;3.92;3.17;;;;;;;;;;4996465;28;20732;-76
2022/07/12 07:53:18;;;;;;;3.03;2.70;;;;;;;;;;4994219;28;20201;-75
2022/07/12 07:55:46;;;;;;;5.13;3.05;;;;;;;;;;4994504;28;20225;-75
2022/07/12 07:58:16;;;;;;;3.70;3.40;;;;;;;;;;4989479;28;20194;-75
2022/07/12 08:00:45;;;;;;;2.70;2.50;;;;;;;;;;4990121;28;20536;-75
2022/07/12 08:03:51;;;;;;;2.42;2.30;;;;;;;;;;4994654;28;20599;-75
2022/07/12 08:06:20;;;;;;;2.72;2.03;;;;;;;;;;4984671;28;20229;-76
2022/07/12 08:08:50;;;;;;;2.83;2.10;;;;;;;;;;4997171;28;20236;-75
2022/07/12 08:11:39;;;;;;;2.47;2.28;;;;;;;;;;4991220;28;20205;-75
2022/07/12 08:14:08;;;;;;;2.55;2.28;;;;;;;;;;4994098;28;20211;-75
2022/07/12 08:16:37;;;;;;;2.40;2.20;;;;;;;;;;4994322;28;20224;-75
2022/07/12 08:19:06;;;;;;;2.25;2.10;;;;;;;;;;4994036;28;20201;-75
2022/07/12 08:21:38;;;;;;;2.25;2.08;;;;;;;;;;4994353;28;20209;-75
2022/07/12 08:24:08;;;;;;;2.00;1.90;;;;;;;;;;4993993;28;20548;-75
2022/07/12 08:26:36;;;;;;;1.95;1.85;;;;;;;;;;4974599;28;20226;-74
2022/07/12 08:29:05;;;;;;;2.20;2.05;;;;;;;;;;4976743;28;20687;-75
2022/07/12 08:31:34;;;;;;;2.15;1.95;;;;;;;;;;4987696;28;20260;-75
2022/07/12 08:34:02;;;;;;;2.28;2.08;;;;;;;;;;4993582;28;20248;-75
2022/07/12 08:36:31;;;;;;;2.03;1.83;;;;;;;;;;4993736;28;20647;-75
2022/07/12 08:39:05;;;;;;;1.70;1.60;;;;;;;;;;4992472;28;20211;-75
2022/07/12 08:41:36;;;;;;;1.80;1.70;;;;;;;;;;4994231;28;20208;-75
2022/07/12 08:44:05;;;;;;;1.77;1.67;;;;;;;;;;4994322;28;20201;-75
2022/07/12 08:46:33;;;;;;;1.80;1.70;;;;;;;;;;4979251;28;20224;-75
2022/07/12 08:49:07;;;;;;;1.80;1.70;;;;;;;;;;4998097;28;20280;-75
2022/07/12 08:51:35;;;;;;;1.88;1.73;;;;;;;;;;4993324;28;20647;-75
2022/07/12 08:54:07;;;;;;;2.13;1.80;;;;;;;;;;4993454;28;20209;-75
2022/07/12 08:56:38;;;;;;;1.75;1.65;;;;;;;;;;4993460;28;20233;-75
2022/07/12 08:59:11;;;;;;;1.75;1.65;;;;;;;;;;4992987;28;20213;-75
2022/07/12 09:01:43;;;;;;;1.65;1.55;;;;;;;;;;4974250;28;20214;-75
2022/07/12 09:04:12;;;;;;;2.13;1.92;;;;;;;;;;4977387;28;20215;-75
2022/07/12 09:06:41;;;;;;;1.90;1.80;;;;;;;;;;4993695;28;20275;-75
2022/07/12 09:09:09;;;;;;;2.40;1.77;;;;;;;;;;4992898;28;20220;-75
2022/07/12 09:11:40;;;;;;;1.75;1.65;;;;;;;;;;4993817;28;20205;-75
2022/07/12 09:14:08;;;;;;;2.17;1.92;;;;;;;;;;4993496;28;20220;-75
2022/07/12 09:16:37;;;;;;;1.83;1.73;;;;;;;;;;4993601;28;20283;-75
2022/07/12 09:19:16;;;;;;;1.80;1.70;;;;;;;;;;4992614;28;20202;-75
2022/07/12 09:21:49;;;;;;;1.95;1.50;;;;;;;;;;4993251;28;20212;-75
2022/07/12 09:24:18;;;;;;;1.58;1.48;;;;;;;;;;4995761;28;20212;-75
2022/07/12 09:26:51;;;;;;;1.75;1.65;;;;;;;;;;4997541;28;20228;-75
2022/07/12 09:29:19;;;;;;;1.58;1.26;;;;;;;;;;4652373;28;10000720;-76
2022/07/12 09:37:22;;;;;;;1.50;1.38;;;;;;;;;;4977936;28;20213;-75
2022/07/12 09:39:51;;;;;;;1.58;1.48;;;;;;;;;;4985328;28;20205;-76
2022/07/12 09:42:21;;;;;;;1.92;1.60;;;;;;;;;;4997802;28;20244;-76
2022/07/12 09:44:57;;;;;;;2.15;1.67;;;;;;;;;;4997570;28;20227;-76
2022/07/12 09:47:29;;;;;;;1.60;1.50;;;;;;;;;;4996780;28;20370;-75
2022/07/12 09:49:59;;;;;;;1.50;1.35;;;;;;;;;;4996959;28;20689;-75
2022/07/12 09:52:28;;;;;;;1.50;1.40;;;;;;;;;;4997197;28;20205;-76
2022/07/12 09:54:57;;;;;;;1.30;1.20;;;;;;;;;;4996420;28;20736;-76
2022/07/12 09:57:29;;;;;;;1.63;1.52;;;;;;;;;;4997040;28;20211;-76
2022/07/12 09:59:58;;;;;;;1.67;1.58;;;;;;;;;;4996549;28;20205;-76
2022/07/12 10:02:26;;;;;;;1.38;1.27;;;;;;;;;;4996366;28;20252;-76
2022/07/12 10:04:55;;;;;;;2.97;1.63;;;;;;;;;;4996050;28;20206;-76
2022/07/12 10:07:24;;;;;;;2.15;1.65;;;;;;;;;;4996699;28;20271;-75
2022/07/12 10:09:54;;;;;;;1.88;1.40;;;;;;;;;;4996417;28;20229;-76
2022/07/12 10:12:24;;;;;;;2.00;1.40;;;;;;;;;;4996831;28;20260;-76
2022/07/12 10:15:02;;;;;;;1.60;1.50;;;;;;;;;;4999823;28;20201;-75
2022/07/12 10:17:31;;;;;;;1.60;1.48;;;;;;;;;;4994754;28;20212;-75
2022/07/12 10:20:16;;;;;;;1.55;1.45;;;;;;;;;;4996264;28;20205;-76
2022/07/12 10:22:45;;;;;;;1.80;1.70;;;;;;;;;;4996777;28;20647;-75
2022/07/12 10:25:28;;;;;;;2.30;1.60;;;;;;;;;;4996216;28;20730;-75
2022/07/12 10:27:58;;;;;;;2.30;1.60;;;;;;;;;;4997542;28;20216;-76
2022/07/12 10:30:27;;;;;;;2.17;1.63;;;;;;;;;;5011466;28;20221;-76
2022/07/12 10:32:58;;;;;;;1.40;1.30;;;;;;;;;;4996765;28;20228;-76
2022/07/12 10:35:28;;;;;;;1.73;1.40;;;;;;;;;;4994275;28;20248;-76
2022/07/12 10:38:14;;;;;;;1.65;1.55;;;;;;;;;;4995720;28;20606;-76
2022/07/12 10:40:44;;;;;;;1.75;1.60;;;;;;;;;;4995642;28;20205;-76
2022/07/12 10:44:04;;;;;;;1.20;1.20;;;;;;;;;;4996191;28;20235;-76
2022/07/12 10:46:20;;;;;;;1.38;1.27;;;;;;;;;;4994565;28;20710;-74
2022/07/12 10:48:48;;;;;;;2.83;1.55;;;;;;;;;;4992671;28;20210;-74
2022/07/12 10:51:19;;;;;;;1.60;1.50;;;;;;;;;;4995508;28;20229;-76
2022/07/12 10:53:50;;;;;;;1.45;1.35;;;;;;;;;;4995720;28;20236;-76
2022/07/12 10:56:22;;;;;;;1.20;1.20;;;;;;;;;;4995126;28;20318;-76
2022/07/12 10:58:58;;;;;;;1.20;1.10;;;;;;;;;;4995357;28;20292;-77
2022/07/12 11:01:29;;;;;;;1.35;1.20;;;;;;;;;;4995006;28;20209;-76
2022/07/12 11:04:04;;;;;;;1.08;1.08;;;;;;;;;;4995661;28;20215;-76
2022/07/12 11:06:35;;;;;;;1.10;1.02;;;;;;;;;;4995743;28;20690;-74
2022/07/12 11:09:04;;;;;;;1.20;1.10;;;;;;;;;;4995435;28;20260;-73
2022/07/12 11:11:33;;;;;;;2.35;1.10;;;;;;;;;;4995168;28;20221;-74
2022/07/12 11:14:02;;;;;;;1.75;1.27;;;;;;;;;;4994962;28;20685;-76
2022/07/12 11:16:32;;;;;;;1.27;1.20;;;;;;;;;;4994345;28;20275;-76
2022/07/12 11:19:01;;;;;;;1.25;1.15;;;;;;;;;;4995210;28;20631;-76
2022/07/12 11:21:36;;;;;;;1.67;1.40;;;;;;;;;;4995445;28;20204;-76
2022/07/12 11:24:16;;;;;;;1.63;1.30;;;;;;;;;;4994440;28;20219;-76
2022/07/12 11:26:45;;;;;;;1.70;1.60;;;;;;;;;;4994707;28;20228;-75
2022/07/12 11:29:13;;;;;;;2.60;1.30;;;;;;;;;;4994686;28;20204;-76
2022/07/12 11:31:43;;;;;;;1.20;1.10;;;;;;;;;;4995052;28;20232;-76
2022/07/12 11:34:27;;;;;;;1.40;1.30;;;;;;;;;;4991152;28;20224;-76
2022/07/12 11:36:56;;;;;;;1.40;0.90;;;;;;;;;;4994868;28;20232;-73
2022/07/12 11:39:32;;;;;;;1.20;1.10;;;;;;;;;;4994991;28;20626;-74
2022/07/12 11:42:01;;;;;;;1.02;0.93;;;;;;;;;;4995192;28;20205;-74
2022/07/12 11:47:35;;;;;;;1.20;1.10;;;;;;;;;;4994663;28;20205;-74
2022/07/12 11:50:03;;;;;;;1.63;1.00;;;;;;;;;;4994567;28;20225;-73
2022/07/12 11:52:32;;;;;;;1.08;1.08;;;;;;;;;;5005990;28;20653;-76
2022/07/12 11:55:08;;;;;;;1.30;1.20;;;;;;;;;;5004395;28;20267;-76
2022/07/12 11:57:36;;;;;;;1.30;1.20;;;;;;;;;;4993676;28;20212;-76
2022/07/12 12:00:14;;;;;;;1.30;1.20;;;;;;;;;;4994207;28;20219;-77
2022/07/12 12:02:44;;;;;;;1.42;1.33;;;;;;;;;;4994285;28;20201;-77
2022/07/12 12:05:12;;;;;;;1.30;1.20;;;;;;;;;;4993850;28;20231;-74
2022/07/12 12:07:41;;;;;;;1.30;1.20;;;;;;;;;;4994289;28;20300;-74
2022/07/12 12:10:13;;;;;;;2.20;1.20;;;;;;;;;;4993822;28;20296;-74
2022/07/12 12:12:43;;;;;;;3.65;0.90;;;;;;;;;;4994364;28;20275;-75
2022/07/12 12:15:12;;;;;;;1.45;0.98;;;;;;;;;;4994130;28;20764;-74
2022/07/12 12:17:46;;;;;;;0.93;0.82;;;;;;;;;;4994636;28;20210;-74
2022/07/12 12:20:17;;;;;;;0.90;0.90;;;;;;;;;;4994140;28;20307;-74
2022/07/12 12:22:45;;;;;;;1.75;1.35;;;;;;;;;;5000910;28;20208;-74
2022/07/12 12:25:15;;;;;;;3.83;1.17;;;;;;;;;;4993256;28;20229;-75
2022/07/12 12:27:45;;;;;;;1.20;1.10;;;;;;;;;;4990140;28;20207;-75
2022/07/12 12:30:34;;;;;;;0.95;0.95;;;;;;;;;;4993796;28;20209;-74
2022/07/12 12:33:06;;;;;;;1.10;1.00;;;;;;;;;;4981504;28;20201;-74
2022/07/12 12:35:35;;;;;;;0.90;0.90;;;;;;;;;;4993852;28;20288;-75
2022/07/12 12:38:04;;;;;;;1.92;1.20;;;;;;;;;;4993720;28;20208;-75
2022/07/12 12:40:34;;;;;;;1.20;1.10;;;;;;;;;;4992963;28;20645;-74
2022/07/12 12:43:10;;;;;;;1.30;0.77;;;;;;;;;;4994523;28;20209;-75
2022/07/12 12:45:50;;;;;;;0.85;0.85;;;;;;;;;;4993908;28;20308;-74
2022/07/12 12:48:21;;;;;;;1.00;1.00;;;;;;;;;;4993780;28;20236;-74
2022/07/12 12:50:50;;;;;;;1.15;1.15;;;;;;;;;;4993481;28;20259;-75
2022/07/12 12:53:19;;;;;;;1.20;1.20;;;;;;;;;;4993974;28;20740;-74
2022/07/12 12:55:50;;;;;;;1.13;1.13;;;;;;;;;;4643738;28;9999757;-74
2022/07/12 12:58:20;;;;;;;1.27;1.13;;;;;;;;;;4990871;28;20585;-75
2022/07/12 13:00:49;;;;;;;1.20;1.10;;;;;;;;;;4991057;28;20732;-74
2022/07/12 13:03:18;;;;;;;1.13;1.10;;;;;;;;;;4991298;28;20216;-75
2022/07/12 13:05:49;;;;;;;2.20;1.00;;;;;;;;;;4994392;28;20271;-79
2022/07/12 13:08:18;;;;;;;1.17;1.02;;;;;;;;;;4992819;28;20937;-77
2022/07/12 13:10:47;;;;;;;1.17;1.13;;;;;;;;;;4991503;28;20713;-76
2022/07/12 13:13:15;;;;;;;1.02;1.00;;;;;;;;;;4993179;28;20217;-80
2022/07/12 13:15:46;;;;;;;2.00;1.10;;;;;;;;;;4992722;28;20233;-75
2022/07/12 13:18:15;;;;;;;1.67;1.02;;;;;;;;;;4992252;28;20219;-76
2022/07/12 13:20:44;;;;;;;2.03;1.20;;;;;;;;;;4992110;28;20632;-77
2022/07/12 13:23:14;;;;;;;1.48;1.10;;;;;;;;;;4992631;28;20205;-76
2022/07/12 13:25:42;;;;;;;1.10;1.00;;;;;;;;;;4992402;28;20255;-79
2022/07/12 13:28:11;;;;;;;1.40;1.30;;;;;;;;;;4993163;28;20630;-79
2022/07/12 13:30:40;;;;;;;1.50;1.40;;;;;;;;;;4992625;28;20212;-77
2022/07/12 13:33:08;;;;;;;1.33;1.10;;;;;;;;;;4992259;28;20624;-78
2022/07/12 13:35:37;;;;;;;1.10;1.10;;;;;;;;;;4988586;28;20226;-77
2022/07/12 13:38:05;;;;;;;2.95;1.50;;;;;;;;;;4972862;28;20208;-76
2022/07/12 13:40:35;;;;;;;3.40;1.40;;;;;;;;;;4981850;28;20213;-76
2022/07/12 13:43:04;;;;;;;1.40;1.30;;;;;;;;;;4992206;28;20178;-77
2022/07/12 13:45:33;;;;;;;1.30;1.20;;;;;;;;;;4991786;28;20229;-77
2022/07/12 13:48:02;;;;;;;2.17;1.35;;;;;;;;;;4992003;28;20300;-77
2022/07/12 13:50:31;;;;;;;1.75;1.08;;;;;;;;;;4991383;28;20220;-77
2022/07/12 13:53:00;;;;;;;1.10;1.10;;;;;;;;;;4991743;28;20757;-77
2022/07/12 13:55:31;;;;;;;1.63;1.10;;;;;;;;;;4991736;28;20221;-78
2022/07/12 13:58:01;;;;;;;1.00;1.00;;;;;;;;;;4991439;28;20296;-78
2022/07/12 14:00:29;;;;;;;1.40;1.30;;;;;;;;;;5001267;28;20216;-77
2022/07/12 14:02:57;;;;;;;2.35;1.00;;;;;;;;;;5009585;28;20249;-76
2022/07/12 14:05:27;;;;;;;2.35;1.10;;;;;;;;;;4998874;28;20236;-77
2022/07/12 14:07:55;;;;;;;1.17;0.90;;;;;;;;;;4974756;28;20210;-77
2022/07/12 14:10:25;;;;;;;1.33;1.00;;;;;;;;;;5001818;28;20204;-76
2022/07/12 14:12:53;;;;;;;0.90;0.90;;;;;;;;;;5014995;28;20626;-77
2022/07/12 14:15:37;;;;;;;0.90;0.90;;;;;;;;;;5002556;28;20584;-77
2022/07/12 14:18:06;;;;;;;0.90;0.90;;;;;;;;;;4994820;28;20186;-76
2022/07/12 14:20:36;;;;;;;0.80;0.80;;;;;;;;;;4994820;28;20300;-77
2022/07/12 14:23:06;;;;;;;1.27;1.10;;;;;;;;;;4996787;28;20663;-79
2022/07/12 14:25:34;;;;;;;1.13;0.90;;;;;;;;;;4994565;28;20220;-77
2022/07/12 14:28:03;;;;;;;2.10;1.10;;;;;;;;;;4994922;28;20598;-77
2022/07/12 14:30:33;;;;;;;0.90;0.90;;;;;;;;;;4994921;28;20223;-77
2022/07/12 14:33:01;;;;;;;1.05;1.00;;;;;;;;;;4994402;28;20227;-77
2022/07/12 14:35:30;;;;;;;1.00;1.00;;;;;;;;;;4994316;28;20236;-77
2022/07/12 14:37:58;;;;;;;3.22;1.08;;;;;;;;;;5006243;28;20232;-78
2022/07/12 14:40:26;;;;;;;0.80;0.80;;;;;;;;;;4996125;28;20212;-78
2022/07/12 14:42:56;;;;;;;0.82;0.82;;;;;;;;;;4996037;28;20247;-77
2022/07/12 14:45:25;;;;;;;1.33;0.90;;;;;;;;;;4996284;28;20228;-77
2022/07/12 14:47:55;;;;;;;2.20;0.90;;;;;;;;;;4996216;28;20218;-77
2022/07/12 14:50:23;;;;;;;2.80;0.80;;;;;;;;;;5015437;28;20203;-78
2022/07/12 14:52:52;;;;;;;1.42;0.90;;;;;;;;;;5015702;28;20224;-78
2022/07/12 14:55:20;;;;;;;1.60;0.90;;;;;;;;;;5014946;28;20229;-77
2022/07/12 14:57:49;;;;;;;0.80;0.80;;;;;;;;;;5015481;28;20205;-77
2022/07/12 15:00:17;;;;;;;0.82;0.77;;;;;;;;;;5015171;28;20220;-78
2022/07/12 15:02:46;;;;;;;2.58;0.70;;;;;;;;;;5015189;28;20208;-77
2022/07/12 15:05:20;;;;;;;0.70;0.70;;;;;;;;;;5011657;28;20298;-79
2022/07/12 15:07:48;;;;;;;0.77;0.75;;;;;;;;;;4997753;28;20216;-79
2022/07/12 15:10:17;;;;;;;1.52;0.60;;;;;;;;;;4996951;28;20201;-79
2022/07/12 15:12:45;;;;;;;1.42;0.60;;;;;;;;;;4997538;28;20229;-79
2022/07/12 15:15:14;;;;;;;1.17;0.70;;;;;;;;;;4996556;28;20229;-79